Americus, Georgia
Current Conditions -  °F | °C
As of 8:35 PM on Monday 22 Dec 2014 (Local Time) from KACJ Reporting Station
Haze Haze  
Wind Chill: 10°   Ceiling: 300
Heat Index: 10°   Visibility: 0.75mi
Dew Point: 10°   Wind: 6mph
Humidity: 100%   Direction: 70°ENE
Pressure: 29.94"   Gusts: NA
Location:  32.07°N, 84.23°W
Report Text: KACJ 230135Z AUTO 07005KT 3/4SM BR OVC003 10/10 A2994 RMK AO2
Loading
Personal Weather Stations






























Interactive Weather Map New forecast layout! Learn more

10-Day Weather Forecast

Advertisements
Track Severe Weather on mobile